Terminal Aerodrome Forecast
Issued by NWS

Home | Current Version | Previous Version | Text Only | Print | Product List | Glossary On
Versions: 1 2 3 4 5 6 7 8 9 10 11 12 13 14
000
FTUS45 KABQ 281143
TAFAEG
TAF
KAEG 281143Z 2812/2912 32011KT P6SM BKN090
     FM281500 32011KT P6SM OVC060
     FM281800 30011KT P6SM VCSH OVC050
      TEMPO 2819/2823 -SHRA SCT030 BKN040
     FM290100 03008KT P6SM BKN060
     FM290900 35005KT P6SM BKN035=

USA.gov is the U.S. government's official web portal to all federal, state and local government web resources and services.